Time;durP1;ratioP1;P1;durP2;ratioP2;P2;SDS_P1;SDS_P2;PMS_P1;PMS_P2;Temp;Humidity;BMP_temperature;BMP_pressure;BME280_temperature;BME280_humidity;BME280_pressure;Samples;Min_cycle;Max_cycle;Signal;HPM_P1;HPM_P2
2023/07/31 00:00:34;;;;;;;;;;;21.20;68.90;;;;;;4999238;28;884;-73
2023/07/31 00:03:00;;;;;;;;;;;21.20;68.90;;;;;;5002831;28;1291;-74
2023/07/31 00:05:25;;;;;;;;;;;21.20;68.90;;;;;;5005309;28;839;-73
2023/07/31 00:07:51;;;;;;;;;;;21.20;68.90;;;;;;5001657;28;873;-73
2023/07/31 00:10:16;;;;;;;;;;;21.20;68.90;;;;;;5000267;28;931;-73
2023/07/31 00:12:42;;;;;;;;;;;21.20;68.90;;;;;;4998757;28;1910;-73
2023/07/31 00:15:08;;;;;;;;;;;21.20;69.00;;;;;;4996264;28;866;-73
2023/07/31 00:17:33;;;;;;;;;;;21.20;69.00;;;;;;5002120;28;825;-73
2023/07/31 00:19:58;;;;;;;;;;;21.20;69.00;;;;;;5002290;28;1293;-73
2023/07/31 00:22:24;;;;;;;;;;;21.20;69.00;;;;;;5000957;28;1256;-73
2023/07/31 00:24:49;;;;;;;;;;;21.30;69.10;;;;;;5003616;28;826;-73
2023/07/31 00:27:15;;;;;;;;;;;21.20;69.00;;;;;;4997547;28;928;-73
2023/07/31 00:29:40;;;;;;;;;;;21.20;69.00;;;;;;5004571;28;1162;-74
2023/07/31 00:32:06;;;;;;;;;;;21.20;69.00;;;;;;5002014;28;1902;-74
2023/07/31 00:34:31;;;;;;;;;;;21.20;69.00;;;;;;4982868;28;979;-74
2023/07/31 00:36:57;;;;;;;;;;;21.20;68.90;;;;;;5000770;28;845;-75
2023/07/31 00:39:22;;;;;;;;;;;21.20;68.90;;;;;;5005080;28;900;-73
2023/07/31 00:41:48;;;;;;;;;;;21.20;69.00;;;;;;5001421;28;1087;-74
2023/07/31 00:44:13;;;;;;;;;;;21.20;69.00;;;;;;5004787;28;1209;-73
2023/07/31 00:46:39;;;;;;;;;;;21.20;69.00;;;;;;4990034;28;1221;-73
2023/07/31 00:49:04;;;;;;;;;;;21.20;69.00;;;;;;5000209;28;1191;-74
2023/07/31 00:51:30;;;;;;;;;;;21.20;69.00;;;;;;4991585;28;940;-73
2023/07/31 00:53:55;;;;;;;;;;;21.20;69.00;;;;;;5003065;28;1993;-74
2023/07/31 00:56:21;;;;;;;;;;;21.20;69.00;;;;;;4999392;28;1318;-74
2023/07/31 00:58:47;;;;;;;;;;;21.20;69.00;;;;;;4999564;28;1166;-74
2023/07/31 01:01:12;;;;;;;;;;;21.20;69.00;;;;;;4997714;28;926;-73
2023/07/31 01:03:39;;;;;;;;;;;21.20;69.00;;;;;;5001274;28;1375;-74
2023/07/31 01:06:04;;;;;;;;;;;21.20;69.00;;;;;;4999260;28;901;-75
2023/07/31 01:08:34;;;;;;;;;;;21.20;69.00;;;;;;4999037;28;1332;-75
2023/07/31 01:11:01;;;;;;;;;;;21.20;69.10;;;;;;5002244;28;1255;-75
2023/07/31 01:13:26;;;;;;;;;;;21.20;69.00;;;;;;4999784;28;1910;-74
2023/07/31 01:15:52;;;;;;;;;;;21.20;69.00;;;;;;5000445;28;817;-75
2023/07/31 01:18:17;;;;;;;;;;;21.20;69.00;;;;;;4999047;28;1369;-75
2023/07/31 01:20:43;;;;;;;;;;;21.20;69.10;;;;;;4999706;28;828;-74
2023/07/31 01:23:11;;;;;;;;;;;21.20;69.10;;;;;;4992448;28;1261;-74
2023/07/31 01:25:43;;;;;;;;;;;21.20;69.10;;;;;;5001141;28;923;-75
2023/07/31 01:28:19;;;;;;;;;;;21.20;69.10;;;;;;5000195;28;1494;-75
2023/07/31 01:30:46;;;;;;;;;;;21.20;69.00;;;;;;4985812;28;1003;-75
2023/07/31 01:33:11;;;;;;;;;;;21.20;69.10;;;;;;5001793;28;1910;-74
2023/07/31 01:35:37;;;;;;;;;;;21.20;69.10;;;;;;5001870;28;872;-73
2023/07/31 01:38:02;;;;;;;;;;;21.20;69.10;;;;;;5001538;28;821;-73
2023/07/31 01:40:28;;;;;;;;;;;21.20;69.10;;;;;;4986625;28;899;-74
2023/07/31 01:42:54;;;;;;;;;;;21.20;69.10;;;;;;5002450;28;1283;-73
2023/07/31 01:45:19;;;;;;;;;;;21.20;69.10;;;;;;4997873;28;1246;-73
2023/07/31 01:47:45;;;;;;;;;;;21.20;69.10;;;;;;4998578;28;859;-73
2023/07/31 01:50:10;;;;;;;;;;;21.20;69.10;;;;;;5000751;28;813;-73
2023/07/31 01:52:36;;;;;;;;;;;21.20;69.10;;;;;;4984832;28;1911;-73
2023/07/31 01:55:01;;;;;;;;;;;21.20;69.10;;;;;;4998276;28;1506;-75
2023/07/31 01:57:27;;;;;;;;;;;21.20;69.10;;;;;;4991810;28;869;-74
2023/07/31 01:59:53;;;;;;;;;;;21.20;69.10;;;;;;5000913;28;1051;-74
2023/07/31 02:02:19;;;;;;;;;;;21.20;69.10;;;;;;5001780;28;1329;-74
2023/07/31 02:04:44;;;;;;;;;;;21.20;69.10;;;;;;4983398;28;908;-74
2023/07/31 02:07:10;;;;;;;;;;;21.20;69.10;;;;;;4986867;28;999;-73
2023/07/31 02:09:35;;;;;;;;;;;21.20;69.10;;;;;;5001101;28;1485;-73
2023/07/31 02:12:00;;;;;;;;;;;21.20;69.10;;;;;;4999288;28;1993;-74
2023/07/31 02:14:26;;;;;;;;;;;21.20;69.10;;;;;;5001337;28;920;-73
2023/07/31 02:16:51;;;;;;;;;;;21.20;69.10;;;;;;4999647;28;1078;-74
2023/07/31 02:19:17;;;;;;;;;;;21.20;69.10;;;;;;4999001;28;1273;-74
2023/07/31 02:21:42;;;;;;;;;;;21.20;69.10;;;;;;4999805;28;1553;-73
2023/07/31 02:24:08;;;;;;;;;;;21.20;69.10;;;;;;4997322;28;1507;-72
2023/07/31 02:26:33;;;;;;;;;;;21.20;69.10;;;;;;5004238;28;1900;-72
2023/07/31 02:28:59;;;;;;;;;;;21.20;69.10;;;;;;5002631;28;1315;-74
2023/07/31 02:31:24;;;;;;;;;;;21.20;69.20;;;;;;4999741;28;1324;-74
2023/07/31 02:33:49;;;;;;;;;;;21.20;69.10;;;;;;4999168;28;1962;-74
2023/07/31 02:36:15;;;;;;;;;;;21.20;69.20;;;;;;4984259;28;1495;-74
2023/07/31 02:38:40;;;;;;;;;;;21.20;69.20;;;;;;5006026;28;1636;-73
2023/07/31 02:41:06;;;;;;;;;;;21.20;69.20;;;;;;4999663;28;1456;-72
2023/07/31 02:43:31;;;;;;;;;;;21.20;69.10;;;;;;5003013;28;1610;-73
2023/07/31 02:45:57;;;;;;;;;;;21.20;69.20;;;;;;4998500;28;1387;-74
2023/07/31 02:48:22;;;;;;;;;;;21.20;69.20;;;;;;4998933;28;901;-74
2023/07/31 02:50:48;;;;;;;;;;;21.20;69.20;;;;;;4998844;28;880;-73
2023/07/31 02:53:13;;;;;;;;;;;21.20;69.20;;;;;;5000219;28;1903;-74
2023/07/31 02:55:39;;;;;;;;;;;21.20;69.20;;;;;;4999957;28;871;-74
2023/07/31 02:58:04;;;;;;;;;;;21.20;69.20;;;;;;4978655;28;1334;-74
2023/07/31 03:00:30;;;;;;;;;;;21.20;69.20;;;;;;4997909;28;1078;-74
2023/07/31 03:02:55;;;;;;;;;;;21.20;69.20;;;;;;4998231;28;1255;-74
2023/07/31 03:05:20;;;;;;;;;;;21.20;69.30;;;;;;4983425;28;1519;-74
2023/07/31 03:07:46;;;;;;;;;;;21.20;69.20;;;;;;5000463;28;848;-74
2023/07/31 03:10:11;;;;;;;;;;;21.20;69.20;;;;;;4999748;28;862;-74
2023/07/31 03:12:37;;;;;;;;;;;21.20;69.20;;;;;;4999137;28;1918;-74
2023/07/31 03:15:03;;;;;;;;;;;21.20;70.00;;;;;;5002093;28;864;-74
2023/07/31 03:17:28;;;;;;;;;;;21.20;69.20;;;;;;4990804;28;779;-74
2023/07/31 03:19:53;;;;;;;;;;;21.20;69.20;;;;;;4978117;28;1428;-75
2023/07/31 03:22:19;;;;;;;;;;;21.20;69.30;;;;;;4999706;28;1325;-73
2023/07/31 03:24:44;;;;;;;;;;;21.20;69.20;;;;;;5002642;28;1003;-74
2023/07/31 03:27:10;;;;;;;;;;;21.20;69.20;;;;;;4997382;28;918;-74
2023/07/31 03:29:35;;;;;;;;;;;21.20;69.20;;;;;;4998196;28;1570;-74
2023/07/31 03:32:01;;;;;;;;;;;21.20;70.00;;;;;;4999615;28;1902;-74
2023/07/31 03:34:26;;;;;;;;;;;21.20;69.20;;;;;;4986020;28;1321;-74
2023/07/31 03:36:52;;;;;;;;;;;21.20;69.20;;;;;;4998017;28;793;-75
2023/07/31 03:39:18;;;;;;;;;;;21.20;69.20;;;;;;4998077;28;891;-74
2023/07/31 03:41:43;;;;;;;;;;;21.20;69.30;;;;;;4986416;28;1567;-74
2023/07/31 03:44:08;;;;;;;;;;;21.20;69.30;;;;;;4998954;28;1257;-74
2023/07/31 03:46:35;;;;;;;;;;;21.20;69.30;;;;;;4998222;28;1007;-74
2023/07/31 03:49:01;;;;;;;;;;;21.20;69.20;;;;;;4997157;28;832;-73
2023/07/31 03:51:26;;;;;;;;;;;21.20;69.30;;;;;;4990806;28;1732;-74
2023/07/31 03:53:52;;;;;;;;;;;21.20;69.30;;;;;;4997797;28;1961;-74
2023/07/31 03:56:17;;;;;;;;;;;21.20;69.30;;;;;;5001729;28;821;-74
2023/07/31 03:58:43;;;;;;;;;;;21.20;69.20;;;;;;5001896;28;860;-74
2023/07/31 04:01:12;;;;;;;;;;;21.20;69.30;;;;;;5000494;28;874;-74
2023/07/31 04:03:37;;;;;;;;;;;21.20;69.30;;;;;;4998898;28;1241;-74
2023/07/31 04:06:03;;;;;;;;;;;21.20;69.30;;;;;;4999654;28;857;-74
2023/07/31 04:08:28;;;;;;;;;;;21.20;69.30;;;;;;5001928;28;829;-74
2023/07/31 04:10:53;;;;;;;;;;;21.20;69.30;;;;;;5006626;28;927;-74
2023/07/31 04:13:19;;;;;;;;;;;21.20;69.30;;;;;;5006881;28;1894;-74
2023/07/31 04:15:48;;;;;;;;;;;21.20;69.30;;;;;;5002418;28;918;-74
2023/07/31 04:18:14;;;;;;;;;;;21.20;69.40;;;;;;5005261;28;884;-74
2023/07/31 04:20:39;;;;;;;;;;;21.20;69.30;;;;;;5002302;28;1038;-74
2023/07/31 04:23:05;;;;;;;;;;;21.20;69.30;;;;;;5005367;28;1272;-74
2023/07/31 04:25:31;;;;;;;;;;;21.20;69.30;;;;;;5002453;28;817;-74
2023/07/31 04:27:57;;;;;;;;;;;21.20;69.30;;;;;;5002950;28;1268;-74
2023/07/31 04:30:22;;;;;;;;;;;21.20;69.30;;;;;;4998529;28;868;-74
2023/07/31 04:32:47;;;;;;;;;;;21.20;69.40;;;;;;5002712;28;1906;-74
2023/07/31 04:35:13;;;;;;;;;;;21.20;69.30;;;;;;4985527;28;1003;-74
2023/07/31 04:37:38;;;;;;;;;;;21.20;69.40;;;;;;5000885;28;826;-74
2023/07/31 04:40:04;;;;;;;;;;;21.20;69.30;;;;;;5000294;28;892;-74
2023/07/31 04:42:29;;;;;;;;;;;21.20;69.40;;;;;;5005282;28;1323;-74
2023/07/31 04:44:55;;;;;;;;;;;21.20;69.30;;;;;;5002955;28;878;-74
2023/07/31 04:47:20;;;;;;;;;;;21.20;69.30;;;;;;4970329;28;1577;-74
2023/07/31 04:49:46;;;;;;;;;;;21.20;69.30;;;;;;4999606;28;885;-74
2023/07/31 04:52:11;;;;;;;;;;;21.20;69.40;;;;;;5002075;28;1906;-74
2023/07/31 04:54:37;;;;;;;;;;;21.20;69.40;;;;;;5000240;28;1070;-74
2023/07/31 04:57:02;;;;;;;;;;;21.20;69.40;;;;;;5002797;28;871;-74
2023/07/31 04:59:28;;;;;;;;;;;21.20;69.40;;;;;;5003706;28;821;-74
2023/07/31 05:01:53;;;;;;;;;;;21.20;69.40;;;;;;5001831;28;1348;-75
2023/07/31 05:04:19;;;;;;;;;;;21.20;69.40;;;;;;5000091;28;852;-74
2023/07/31 05:06:44;;;;;;;;;;;21.20;69.40;;;;;;4998401;28;941;-74
2023/07/31 05:09:10;;;;;;;;;;;21.20;69.40;;;;;;4998149;28;888;-74
2023/07/31 05:11:35;;;;;;;;;;;21.20;69.40;;;;;;5003097;28;816;-74
2023/07/31 05:14:01;;;;;;;;;;;21.20;69.40;;;;;;4998224;28;1898;-75
2023/07/31 05:16:26;;;;;;;;;;;21.20;69.40;;;;;;5000905;28;1388;-74
2023/07/31 05:18:52;;;;;;;;;;;21.20;69.40;;;;;;5000271;28;1375;-74
2023/07/31 05:21:17;;;;;;;;;;;21.20;69.40;;;;;;4999268;28;896;-74
2023/07/31 05:23:42;;;;;;;;;;;21.20;69.40;;;;;;5001663;28;1264;-74
2023/07/31 05:26:09;;;;;;;;;;;21.20;69.40;;;;;;5000731;28;947;-74
2023/07/31 05:28:35;;;;;;;;;;;21.20;69.40;;;;;;5000737;28;1301;-74
2023/07/31 05:31:01;;;;;;;;;;;21.20;69.40;;;;;;4977683;28;1458;-74
2023/07/31 05:33:26;;;;;;;;;;;21.20;69.40;;;;;;4992679;28;1903;-74
2023/07/31 05:35:52;;;;;;;;;;;21.20;69.40;;;;;;5000057;28;947;-74
2023/07/31 05:38:17;;;;;;;;;;;21.20;69.40;;;;;;4986728;28;910;-74
2023/07/31 05:40:43;;;;;;;;;;;21.20;69.40;;;;;;4996857;28;830;-74
2023/07/31 05:43:09;;;;;;;;;;;21.20;69.40;;;;;;4999107;28;1350;-74
2023/07/31 05:45:34;;;;;;;;;;;21.20;69.40;;;;;;4999460;28;855;-74
2023/07/31 05:48:00;;;;;;;;;;;21.20;69.40;;;;;;4999269;28;853;-74
2023/07/31 05:50:25;;;;;;;;;;;21.20;69.40;;;;;;5000165;28;1335;-74
2023/07/31 05:52:51;;;;;;;;;;;21.20;69.40;;;;;;5002786;28;1906;-74
2023/07/31 05:55:17;;;;;;;;;;;21.20;69.40;;;;;;4998693;28;2096;-69
2023/07/31 05:57:42;;;;;;;;;;;21.20;69.40;;;;;;4994883;28;1874;-70
2023/07/31 06:00:08;;;;;;;;;;;21.20;69.40;;;;;;4995831;28;1272;-71
2023/07/31 06:02:36;;;;;;;;;;;21.20;69.40;;;;;;4998547;28;1376;-71
2023/07/31 06:05:02;;;;;;;;;;;21.20;69.40;;;;;;4998022;28;824;-71
2023/07/31 06:07:28;;;;;;;;;;;21.20;69.40;;;;;;4983482;28;1243;-76
2023/07/31 06:09:54;;;;;;;;;;;21.20;69.40;;;;;;4995257;28;891;-75
2023/07/31 06:12:20;;;;;;;;;;;21.20;69.40;;;;;;4998253;28;1954;-71
2023/07/31 06:14:45;;;;;;;;;;;21.20;69.40;;;;;;4983727;28;844;-71
2023/07/31 06:17:11;;;;;;;;;;;21.20;69.40;;;;;;4996726;28;920;-73
2023/07/31 06:19:36;;;;;;;;;;;21.20;69.40;;;;;;5000850;28;1366;-74
2023/07/31 06:22:02;;;;;;;;;;;21.20;69.40;;;;;;4997762;28;1305;-73
2023/07/31 06:24:27;;;;;;;;;;;21.20;69.40;;;;;;5000033;28;817;-73
2023/07/31 06:26:53;;;;;;;;;;;21.20;69.40;;;;;;4996746;28;958;-70
2023/07/31 06:29:18;;;;;;;;;;;21.20;69.40;;;;;;4996124;28;1455;-70
2023/07/31 06:31:44;;;;;;;;;;;21.20;69.40;;;;;;4997515;28;1354;-70
2023/07/31 06:34:09;;;;;;;;;;;21.20;69.40;;;;;;5000393;28;1891;-70
2023/07/31 06:36:35;;;;;;;;;;;21.20;69.40;;;;;;4998289;28;873;-71
2023/07/31 06:39:00;;;;;;;;;;;21.20;69.40;;;;;;4997663;28;931;-71
2023/07/31 06:41:26;;;;;;;;;;;21.20;69.40;;;;;;4996902;28;1546;-71
2023/07/31 06:43:51;;;;;;;;;;;21.20;69.40;;;;;;5000060;28;1335;-70
2023/07/31 06:46:17;;;;;;;;;;;21.20;69.40;;;;;;4996508;28;882;-70
2023/07/31 06:48:42;;;;;;;;;;;21.20;69.40;;;;;;5001885;28;1007;-71
2023/07/31 06:51:07;;;;;;;;;;;21.20;69.40;;;;;;4998214;28;920;-71
2023/07/31 06:53:33;;;;;;;;;;;21.20;69.40;;;;;;4999318;28;1971;-75
2023/07/31 06:55:58;;;;;;;;;;;21.20;69.40;;;;;;4995077;28;2220;-76
2023/07/31 06:58:24;;;;;;;;;;;21.20;69.40;;;;;;4991196;28;792;-76
2023/07/31 07:00:50;;;;;;;;;;;21.20;69.40;;;;;;4997840;28;876;-75
2023/07/31 07:03:17;;;;;;;;;;;21.20;69.40;;;;;;4999748;28;1353;-75
2023/07/31 07:05:43;;;;;;;;;;;21.20;69.40;;;;;;4998242;28;1328;-75
2023/07/31 07:08:08;;;;;;;;;;;21.20;69.40;;;;;;4997455;28;892;-75
2023/07/31 07:10:33;;;;;;;;;;;21.20;69.40;;;;;;5001829;28;1498;-76
2023/07/31 07:12:59;;;;;;;;;;;21.20;69.40;;;;;;4995235;28;1963;-75
2023/07/31 07:15:28;;;;;;;;;;;21.20;69.40;;;;;;5000213;28;797;-75
2023/07/31 07:17:54;;;;;;;;;;;21.20;69.40;;;;;;4999150;28;840;-75
2023/07/31 07:20:20;;;;;;;;;;;21.20;69.80;;;;;;4998679;28;1343;-75
2023/07/31 07:22:45;;;;;;;;;;;21.20;69.40;;;;;;4999787;28;1361;-76
2023/07/31 07:25:11;;;;;;;;;;;21.20;69.40;;;;;;4993463;28;1546;-74
2023/07/31 07:27:36;;;;;;;;;;;21.20;69.40;;;;;;4999880;28;794;-74
2023/07/31 07:30:02;;;;;;;;;;;21.20;69.40;;;;;;5002046;28;1093;-74
2023/07/31 07:32:27;;;;;;;;;;;21.20;69.40;;;;;;4987857;28;1875;-74
2023/07/31 07:34:53;;;;;;;;;;;21.20;69.40;;;;;;5006338;28;912;-74
2023/07/31 07:37:18;;;;;;;;;;;21.20;69.40;;;;;;5000677;28;847;-74
2023/07/31 07:39:44;;;;;;;;;;;21.20;69.40;;;;;;5003784;28;967;-74
2023/07/31 07:42:09;;;;;;;;;;;21.20;69.40;;;;;;4999503;28;1288;-74
2023/07/31 07:44:35;;;;;;;;;;;21.20;69.40;;;;;;5002198;28;851;-74
2023/07/31 07:47:00;;;;;;;;;;;21.20;69.40;;;;;;5003002;28;856;-74
2023/07/31 07:49:25;;;;;;;;;;;21.20;69.40;;;;;;5007004;28;793;-74
2023/07/31 07:51:52;;;;;;;;;;;21.20;69.40;;;;;;5005613;28;1046;-74
2023/07/31 07:54:17;;;;;;;;;;;21.20;69.40;;;;;;5005842;28;1918;-74
2023/07/31 07:56:43;;;;;;;;;;;21.20;69.40;;;;;;5005734;28;2127;-74
2023/07/31 07:59:08;;;;;;;;;;;21.20;69.50;;;;;;5008145;28;1422;-74
2023/07/31 08:01:34;;;;;;;;;;;21.20;69.40;;;;;;5004541;28;1388;-74
2023/07/31 08:04:00;;;;;;;;;;;21.20;69.40;;;;;;5005793;28;1261;-74
2023/07/31 08:06:25;;;;;;;;;;;21.20;69.50;;;;;;4994714;28;1390;-74
2023/07/31 08:08:51;;;;;;;;;;;21.20;69.50;;;;;;4997896;28;1498;-74
2023/07/31 08:11:16;;;;;;;;;;;21.20;69.40;;;;;;4990963;28;1434;-73
2023/07/31 08:13:42;;;;;;;;;;;21.20;69.40;;;;;;4998266;28;1890;-74
2023/07/31 08:16:07;;;;;;;;;;;21.20;69.50;;;;;;5002237;28;962;-74
2023/07/31 08:18:33;;;;;;;;;;;21.20;69.50;;;;;;4992671;28;1288;-73
2023/07/31 08:20:58;;;;;;;;;;;21.20;69.50;;;;;;5005620;28;837;-74
2023/07/31 08:23:24;;;;;;;;;;;21.20;69.50;;;;;;5002774;28;1264;-74
2023/07/31 08:25:50;;;;;;;;;;;21.20;69.40;;;;;;5001439;28;810;-73
2023/07/31 08:28:16;;;;;;;;;;;21.20;69.50;;;;;;5005152;28;1260;-73
2023/07/31 08:30:41;;;;;;;;;;;21.20;69.50;;;;;;4990861;28;1259;-74
2023/07/31 08:33:07;;;;;;;;;;;21.20;69.50;;;;;;4988817;28;1910;-74
2023/07/31 08:35:33;;;;;;;;;;;21.20;69.50;;;;;;5000418;28;859;-74
2023/07/31 08:37:58;;;;;;;;;;;21.20;69.50;;;;;;4988120;28;860;-74
2023/07/31 08:40:24;;;;;;;;;;;21.20;69.50;;;;;;4999303;28;867;-73
2023/07/31 08:42:50;;;;;;;;;;;21.20;69.50;;;;;;4980068;28;1781;-74
2023/07/31 08:45:16;;;;;;;;;;;21.20;69.50;;;;;;4995896;28;1308;-74
2023/07/31 08:47:43;;;;;;;;;;;21.20;69.60;;;;;;5001935;28;787;-74
2023/07/31 08:50:09;;;;;;;;;;;21.20;69.50;;;;;;4998948;28;2224;-71
2023/07/31 08:52:35;;;;;;;;;;;21.20;69.50;;;;;;4989794;28;1903;-73
2023/07/31 08:55:00;;;;;;;;;;;21.20;69.50;;;;;;5003427;28;885;-72
2023/07/31 08:57:26;;;;;;;;;;;21.20;69.50;;;;;;5001390;28;920;-72
2023/07/31 08:59:51;;;;;;;;;;;21.20;69.50;;;;;;5000620;28;842;-74
2023/07/31 09:02:17;;;;;;;;;;;21.20;69.50;;;;;;4992152;28;1810;-70
2023/07/31 09:04:42;;;;;;;;;;;21.20;69.50;;;;;;4985671;28;838;-72
2023/07/31 09:07:09;;;;;;;;;;;21.20;69.60;;;;;;5001554;28;820;-73
2023/07/31 09:09:34;;;;;;;;;;;21.20;70.30;;;;;;4987255;28;833;-73
2023/07/31 09:12:00;;;;;;;;;;;21.20;69.50;;;;;;4998673;28;1919;-73
2023/07/31 09:14:25;;;;;;;;;;;21.20;69.60;;;;;;4985545;28;852;-73
2023/07/31 09:16:58;;;;;;;;;;;21.20;70.30;;;;;;4997988;28;1057;-74
2023/07/31 09:19:33;;;;;;;;;;;21.20;69.50;;;;;;5002901;28;1320;-74
2023/07/31 09:21:59;;;;;;;;;;;21.20;69.60;;;;;;5001866;28;1354;-73
2023/07/31 09:24:28;;;;;;;;;;;21.20;69.60;;;;;;4990320;28;837;-73
2023/07/31 09:26:54;;;;;;;;;;;21.20;69.60;;;;;;4984161;28;885;-73
2023/07/31 09:29:19;;;;;;;;;;;21.20;69.60;;;;;;4999733;28;1327;-73
2023/07/31 09:31:45;;;;;;;;;;;21.20;69.60;;;;;;5002066;28;1503;-72
2023/07/31 09:34:16;;;;;;;;;;;21.20;69.60;;;;;;4999041;28;1982;-74
2023/07/31 09:36:45;;;;;;;;;;;21.20;69.60;;;;;;4999638;28;891;-74
2023/07/31 09:39:11;;;;;;;;;;;21.20;69.60;;;;;;4988232;28;853;-73
2023/07/31 09:41:40;;;;;;;;;;;21.20;69.60;;;;;;5000521;28;921;-74
2023/07/31 09:44:06;;;;;;;;;;;21.20;69.60;;;;;;4993045;28;1287;-74
2023/07/31 09:46:31;;;;;;;;;;;21.20;69.60;;;;;;4998447;28;896;-73
2023/07/31 09:49:04;;;;;;;;;;;21.20;69.60;;;;;;4998460;28;834;-74
2023/07/31 09:51:31;;;;;;;;;;;21.20;69.60;;;;;;4998689;28;930;-74
2023/07/31 09:53:56;;;;;;;;;;;21.20;69.60;;;;;;4996452;28;1911;-73
2023/07/31 09:56:22;;;;;;;;;;;21.20;69.60;;;;;;4999104;28;861;-74
2023/07/31 09:58:47;;;;;;;;;;;21.20;69.60;;;;;;4997894;28;952;-74
2023/07/31 10:01:13;;;;;;;;;;;21.20;69.60;;;;;;4999898;28;940;-74
2023/07/31 10:03:39;;;;;;;;;;;21.20;69.60;;;;;;4987285;28;1351;-74
2023/07/31 10:06:04;;;;;;;;;;;21.20;69.60;;;;;;4998476;28;1256;-74
2023/07/31 10:08:30;;;;;;;;;;;21.20;69.60;;;;;;5000388;28;821;-74
2023/07/31 10:10:57;;;;;;;;;;;21.20;69.60;;;;;;4982724;28;1177;-74
2023/07/31 10:13:22;;;;;;;;;;;21.20;69.60;;;;;;4999123;28;1986;-74
2023/07/31 10:15:47;;;;;;;;;;;21.20;69.60;;;;;;5001570;28;864;-74
2023/07/31 10:18:13;;;;;;;;;;;21.20;69.60;;;;;;4998155;28;1298;-74
2023/07/31 10:20:38;;;;;;;;;;;21.20;69.60;;;;;;4986179;28;1053;-74
2023/07/31 10:23:04;;;;;;;;;;;21.20;69.60;;;;;;4983352;28;1324;-74
2023/07/31 10:25:30;;;;;;;;;;;21.20;69.60;;;;;;4999556;28;819;-74
2023/07/31 10:27:55;;;;;;;;;;;21.20;69.60;;;;;;4985525;28;1281;-74
2023/07/31 10:30:22;;;;;;;;;;;21.20;69.60;;;;;;4984583;28;800;-74
2023/07/31 10:32:49;;;;;;;;;;;21.20;69.60;;;;;;4999591;28;1914;-72
2023/07/31 10:35:15;;;;;;;;;;;21.20;70.40;;;;;;5000240;28;840;-73
2023/07/31 10:37:44;;;;;;;;;;;21.20;69.60;;;;;;5002178;28;927;-74
2023/07/31 10:40:11;;;;;;;;;;;21.20;69.60;;;;;;4990773;28;1252;-72
2023/07/31 10:42:38;;;;;;;;;;;21.20;69.70;;;;;;4991038;28;1323;-73
2023/07/31 10:45:05;;;;;;;;;;;21.20;69.70;;;;;;4999381;28;883;-73
2023/07/31 10:47:31;;;;;;;;;;;21.10;69.60;;;;;;4985585;28;1374;-73
2023/07/31 10:50:11;;;;;;;;;;;21.20;69.60;;;;;;4983118;28;833;-73
2023/07/31 10:52:37;;;;;;;;;;;21.20;69.70;;;;;;4999854;28;1906;-73
2023/07/31 10:55:29;;;;;;;;;;;21.20;69.70;;;;;;4999943;28;866;-73
2023/07/31 10:58:10;;;;;;;;;;;21.20;69.60;;;;;;4995760;28;994;-73
2023/07/31 11:00:42;;;;;;;;;;;21.20;70.10;;;;;;4996732;28;943;-73
2023/07/31 11:03:10;;;;;;;;;;;21.20;70.70;;;;;;4995688;28;1264;-73
2023/07/31 11:05:41;;;;;;;;;;;21.30;71.10;;;;;;4997769;28;1429;-73
2023/07/31 11:08:30;;;;;;;;;;;21.30;71.40;;;;;;4998408;28;893;-73
2023/07/31 11:11:01;;;;;;;;;;;21.30;71.60;;;;;;4991295;28;1252;-73
2023/07/31 11:13:30;;;;;;;;;;;21.30;71.80;;;;;;4997981;28;1903;-73
2023/07/31 11:15:55;;;;;;;;;;;21.30;71.80;;;;;;4990127;28;1377;-73
2023/07/31 11:18:21;;;;;;;;;;;21.30;71.80;;;;;;4994859;28;1947;-73
2023/07/31 11:20:46;;;;;;;;;;;21.40;71.50;;;;;;4997329;28;852;-73
2023/07/31 11:23:12;;;;;;;;;;;21.30;71.20;;;;;;4982013;28;1592;-73
2023/07/31 11:25:38;;;;;;;;;;;21.40;71.10;;;;;;4996960;28;799;-73
2023/07/31 11:28:07;;;;;;;;;;;21.30;71.10;;;;;;4996913;28;1245;-73
2023/07/31 11:30:33;;;;;;;;;;;21.30;71.00;;;;;;4997874;28;1309;-73
2023/07/31 11:32:59;;;;;;;;;;;21.30;71.00;;;;;;4997802;28;1902;-73
2023/07/31 11:35:24;;;;;;;;;;;21.30;71.00;;;;;;4998041;28;1206;-73
2023/07/31 11:37:50;;;;;;;;;;;21.30;71.00;;;;;;4996149;28;1314;-73
2023/07/31 11:40:15;;;;;;;;;;;21.30;70.90;;;;;;4996622;28;1062;-73
2023/07/31 11:42:41;;;;;;;;;;;21.30;70.90;;;;;;4995818;28;1245;-73
2023/07/31 11:45:09;;;;;;;;;;;21.30;70.90;;;;;;4993978;28;863;-73
2023/07/31 11:47:36;;;;;;;;;;;21.30;70.90;;;;;;4994641;28;810;-73
2023/07/31 11:50:02;;;;;;;;;;;21.30;70.90;;;;;;4995195;28;904;-73
2023/07/31 11:52:28;;;;;;;;;;;21.30;70.90;;;;;;4984708;28;1989;-73
2023/07/31 11:54:54;;;;;;;;;;;21.30;70.90;;;;;;4989842;28;903;-73
2023/07/31 11:57:19;;;;;;;;;;;21.30;70.80;;;;;;4988413;28;1307;-73
2023/07/31 11:59:45;;;;;;;;;;;21.30;70.80;;;;;;4997183;28;850;-73
2023/07/31 12:02:10;;;;;;;;;;;21.30;70.80;;;;;;4994879;28;1264;-73
2023/07/31 12:04:35;;;;;;;;;;;21.30;70.80;;;;;;4998669;28;980;-73
2023/07/31 12:07:01;;;;;;;;;;;21.20;70.70;;;;;;4986708;28;896;-73
2023/07/31 12:09:26;;;;;;;;;;;21.30;70.80;;;;;;4998223;28;908;-72
2023/07/31 12:11:52;;;;;;;;;;;21.20;70.70;;;;;;4982160;28;913;-72
2023/07/31 12:14:22;;;;;;;;;;;21.20;70.70;;;;;;4998559;28;1954;-72
2023/07/31 12:16:47;;;;;;;;;;;21.20;70.70;;;;;;5004158;28;1011;-73
2023/07/31 12:19:13;;;;;;;;;;;21.20;70.70;;;;;;4990882;28;1356;-73
2023/07/31 12:21:38;;;;;;;;;;;21.20;70.70;;;;;;4986536;28;821;-72
2023/07/31 12:24:04;;;;;;;;;;;21.20;70.60;;;;;;4997388;28;1256;-73
2023/07/31 12:26:38;;;;;;;;;;;21.20;70.60;;;;;;5001928;28;1004;-72
2023/07/31 12:29:04;;;;;;;;;;;21.20;70.60;;;;;;5000514;28;1323;-72
2023/07/31 12:31:30;;;;;;;;;;;21.20;70.60;;;;;;4992209;28;1272;-72
2023/07/31 12:33:55;;;;;;;;;;;21.20;70.50;;;;;;5000954;28;1902;-73
2023/07/31 12:36:21;;;;;;;;;;;21.20;70.50;;;;;;4999798;28;1074;-73
2023/07/31 12:38:47;;;;;;;;;;;21.20;70.50;;;;;;4987401;28;821;-73
2023/07/31 12:41:12;;;;;;;;;;;21.20;70.50;;;;;;5001645;28;1381;-73
2023/07/31 12:43:38;;;;;;;;;;;21.20;70.50;;;;;;4991088;28;1364;-73
2023/07/31 12:46:04;;;;;;;;;;;21.20;70.50;;;;;;4984488;28;830;-73
2023/07/31 12:48:30;;;;;;;;;;;21.20;70.50;;;;;;4990060;28;846;-73
2023/07/31 12:50:56;;;;;;;;;;;21.20;70.50;;;;;;4985959;28;880;-73
2023/07/31 12:53:21;;;;;;;;;;;21.20;70.50;;;;;;4997782;28;1984;-73
2023/07/31 12:55:47;;;;;;;;;;;21.20;70.40;;;;;;4998693;28;921;-72
2023/07/31 12:58:12;;;;;;;;;;;21.20;70.40;;;;;;5003799;28;930;-73
2023/07/31 13:00:37;;;;;;;;;;;21.20;70.40;;;;;;4998187;28;1680;-73
2023/07/31 13:03:03;;;;;;;;;;;21.20;70.40;;;;;;4986628;28;1356;-73
2023/07/31 13:05:28;;;;;;;;;;;21.20;70.40;;;;;;4999711;28;909;-74
2023/07/31 13:07:54;;;;;;;;;;;21.20;70.40;;;;;;4998905;28;841;-73
2023/07/31 13:10:19;;;;;;;;;;;21.20;70.40;;;;;;5000392;28;1298;-72
2023/07/31 13:12:45;;;;;;;;;;;21.20;70.40;;;;;;5000869;28;1906;-70
2023/07/31 13:15:10;;;;;;;;;;;21.20;70.40;;;;;;4999749;28;848;-71
2023/07/31 13:17:36;;;;;;;;;;;21.20;70.40;;;;;;4998857;28;1007;-69
2023/07/31 13:20:02;;;;;;;;;;;21.20;70.40;;;;;;4998642;28;1390;-69
2023/07/31 13:22:27;;;;;;;;;;;21.20;70.30;;;;;;5000805;28;1363;-69
2023/07/31 13:24:53;;;;;;;;;;;21.20;70.30;;;;;;4998127;28;1175;-70
2023/07/31 13:27:20;;;;;;;;;;;21.20;70.30;;;;;;4999285;28;855;-69
2023/07/31 13:29:45;;;;;;;;;;;21.20;70.40;;;;;;4999655;28;859;-70
2023/07/31 13:32:11;;;;;;;;;;;21.20;70.30;;;;;;4998274;28;2019;-69
2023/07/31 13:34:36;;;;;;;;;;;21.20;70.30;;;;;;5000536;28;837;-75
2023/07/31 13:37:02;;;;;;;;;;;21.20;70.40;;;;;;5000072;28;1095;-74
2023/07/31 13:39:28;;;;;;;;;;;21.20;70.30;;;;;;4998220;28;851;-74
2023/07/31 13:41:53;;;;;;;;;;;21.20;70.30;;;;;;4998956;28;872;-72
2023/07/31 13:44:18;;;;;;;;;;;21.20;70.30;;;;;;5000398;28;1158;-72
2023/07/31 13:46:44;;;;;;;;;;;21.20;70.40;;;;;;4998560;28;876;-72
2023/07/31 13:49:09;;;;;;;;;;;21.20;70.30;;;;;;4998349;28;849;-77
2023/07/31 13:51:35;;;;;;;;;;;21.20;70.30;;;;;;5001069;28;880;-72
2023/07/31 13:54:01;;;;;;;;;;;21.20;70.30;;;;;;4999258;28;1971;-74
2023/07/31 13:56:26;;;;;;;;;;;21.20;70.30;;;;;;5007292;28;1051;-71
2023/07/31 13:58:52;;;;;;;;;;;21.20;70.30;;;;;;4999466;28;1174;-70
2023/07/31 14:01:17;;;;;;;;;;;21.20;70.30;;;;;;4998873;28;1027;-73
2023/07/31 14:03:42;;;;;;;;;;;21.20;70.30;;;;;;4999294;28;1256;-74
2023/07/31 14:06:08;;;;;;;;;;;21.20;70.30;;;;;;4994772;28;906;-72
2023/07/31 14:08:33;;;;;;;;;;;21.20;70.30;;;;;;4994648;28;947;-72
2023/07/31 14:10:59;;;;;;;;;;;21.20;70.30;;;;;;4996196;28;1628;-72
2023/07/31 14:13:24;;;;;;;;;;;21.20;70.20;;;;;;4995457;28;1894;-72
2023/07/31 14:15:50;;;;;;;;;;;21.20;70.30;;;;;;4996348;28;861;-72
2023/07/31 14:18:15;;;;;;;;;;;21.20;70.20;;;;;;4999583;28;872;-72
2023/07/31 14:20:41;;;;;;;;;;;21.20;70.30;;;;;;4997622;28;939;-75
2023/07/31 14:23:06;;;;;;;;;;;21.20;70.20;;;;;;4998494;28;1264;-74
2023/07/31 14:25:31;;;;;;;;;;;21.20;70.20;;;;;;4999000;28;841;-75
2023/07/31 14:27:57;;;;;;;;;;;21.20;70.20;;;;;;4989904;28;1310;-73